Time;durP1;ratioP1;P1;durP2;ratioP2;P2;SDS_P1;SDS_P2;PMS_P1;PMS_P2;Temp;Humidity;BMP_temperature;BMP_pressure;BME280_temperature;BME280_humidity;BME280_pressure;Samples;Min_cycle;Max_cycle;Signal;HPM_P1;HPM_P2
2022/03/23 00:00:06;;;;;;;587.28;283.38;;;1.00;97.50;;;;;;5073414;28;20020;-91
2022/03/23 00:02:32;;;;;;;509.98;236.90;;;0.90;97.60;;;;;;5073907;28;20409;-91
2022/03/23 00:05:00;;;;;;;505.75;232.13;;;0.90;97.60;;;;;;5073420;28;20028;-91
2022/03/23 00:07:26;;;;;;;451.52;200.25;;;0.90;97.70;;;;;;5073485;28;20028;-92
2022/03/23 00:09:52;;;;;;;381.77;157.65;;;0.80;97.70;;;;;;5073441;28;20070;-92
2022/03/23 00:12:20;;;;;;;365.67;151.45;;;0.80;97.80;;;;;;5073733;28;20024;-91
2022/03/23 00:14:46;;;;;;;317.05;135.35;;;0.80;97.90;;;;;;5073552;28;20021;-91
2022/03/23 00:17:12;;;;;;;302.05;128.27;;;0.70;98.10;;;;;;5073748;28;20031;-91
2022/03/23 00:19:38;;;;;;;265.23;115.30;;;0.70;98.10;;;;;;5073498;28;20032;-91
2022/03/23 00:22:04;;;;;;;248.30;107.70;;;0.70;98.10;;;;;;5073504;28;20044;-92
2022/03/23 00:24:31;;;;;;;232.25;103.70;;;0.70;98.30;;;;;;5073335;28;20031;-91
2022/03/23 00:26:57;;;;;;;218.48;99.13;;;0.70;98.30;;;;;;5073664;28;20025;-91
2022/03/23 00:29:22;;;;;;;215.00;99.03;;;0.60;98.50;;;;;;5072682;28;20031;-91
2022/03/23 00:31:49;;;;;;;212.30;99.93;;;0.70;98.60;;;;;;5073098;28;20059;-92
2022/03/23 00:34:15;;;;;;;196.73;93.65;;;0.60;98.60;;;;;;5073400;28;20040;-92
2022/03/23 00:36:43;;;;;;;185.38;85.25;;;0.60;98.60;;;;;;5073575;28;20033;-91
2022/03/23 00:39:08;;;;;;;204.27;91.38;;;0.60;98.70;;;;;;5073335;28;20052;-91
2022/03/23 00:41:34;;;;;;;186.65;91.45;;;0.60;98.80;;;;;;5073348;28;20462;-91
2022/03/23 00:44:03;;;;;;;190.10;90.25;;;0.50;98.90;;;;;;5076555;28;20078;-92
2022/03/23 00:46:30;;;;;;;193.07;91.70;;;0.50;98.80;;;;;;5077210;28;20021;-91
2022/03/23 00:49:00;;;;;;;191.32;87.93;;;0.50;98.90;;;;;;5078233;28;20411;-92
2022/03/23 00:51:31;;;;;;;189.57;92.82;;;0.50;99.00;;;;;;5077435;28;20439;-91
2022/03/23 00:53:59;;;;;;;198.98;96.93;;;0.40;99.20;;;;;;5077705;28;20025;-92
2022/03/23 00:56:25;;;;;;;215.82;102.10;;;0.40;99.20;;;;;;5077401;28;20085;-92
2022/03/23 00:58:51;;;;;;;220.07;105.57;;;0.40;99.40;;;;;;5077005;28;20119;-91
2022/03/23 01:01:17;;;;;;;211.30;100.30;;;0.40;99.50;;;;;;5077113;28;20109;-92
2022/03/23 01:03:42;;;;;;;219.48;101.07;;;0.30;99.50;;;;;;5076202;28;20025;-91
2022/03/23 01:06:08;;;;;;;207.13;103.15;;;0.30;99.60;;;;;;5076217;28;20108;-91
2022/03/23 01:08:34;;;;;;;204.45;97.32;;;0.30;99.80;;;;;;5077540;28;20463;-92
2022/03/23 01:11:01;;;;;;;206.63;101.00;;;0.20;99.90;;;;;;5076770;28;20020;-91
2022/03/23 01:13:27;;;;;;;204.52;101.00;;;0.20;99.80;;;;;;5076908;28;20471;-92
2022/03/23 01:15:53;;;;;;;219.32;100.95;;;0.20;99.90;;;;;;5076363;28;20082;-92
2022/03/23 01:18:18;;;;;;;205.05;101.47;;;0.20;99.90;;;;;;5076895;28;20382;-91
2022/03/23 01:20:45;;;;;;;210.32;105.80;;;0.20;99.90;;;;;;5076282;28;20139;-91
2022/03/23 01:23:11;;;;;;;213.63;103.97;;;0.20;99.90;;;;;;5076450;28;20027;-91
2022/03/23 01:25:37;;;;;;;213.68;107.50;;;0.20;99.90;;;;;;5076243;28;20115;-91
2022/03/23 01:28:03;;;;;;;201.55;99.72;;;0.10;99.90;;;;;;5075947;28;20033;-92
2022/03/23 01:30:29;;;;;;;194.77;95.07;;;0.10;99.90;;;;;;5076397;28;20016;-91
2022/03/23 01:32:55;;;;;;;183.57;90.90;;;0.10;99.90;;;;;;5060000;28;20086;-91
2022/03/23 01:35:21;;;;;;;185.30;91.88;;;0.10;99.90;;;;;;5075768;28;20024;-91
2022/03/23 01:37:46;;;;;;;186.13;91.22;;;0.10;99.90;;;;;;5075912;28;20417;-91
2022/03/23 01:40:12;;;;;;;186.45;91.45;;;0.10;99.90;;;;;;5076100;28;20501;-90
2022/03/23 01:42:39;;;;;;;182.10;88.72;;;0.10;99.90;;;;;;5077057;28;20390;-91
2022/03/23 01:45:08;;;;;;;180.45;87.30;;;0.20;99.90;;;;;;5075884;28;20536;-91
2022/03/23 01:47:34;;;;;;;181.05;86.85;;;0.10;99.90;;;;;;5076108;28;20466;-91
2022/03/23 01:50:03;;;;;;;184.02;90.40;;;0.10;99.90;;;;;;5076043;28;20482;-91
2022/03/23 01:52:31;;;;;;;186.80;90.85;;;0.10;99.90;;;;;;5075927;28;20060;-90
2022/03/23 01:54:59;;;;;;;190.43;91.63;;;0.10;99.90;;;;;;5075280;28;20031;-91
2022/03/23 01:57:25;;;;;;;182.93;92.00;;;0.10;99.90;;;;;;5075568;28;20406;-91
2022/03/23 01:59:51;;;;;;;177.93;86.93;;;0.10;99.90;;;;;;5075512;28;20021;-91
2022/03/23 02:02:19;;;;;;;174.82;82.97;;;0.10;99.90;;;;;;5075862;28;20044;-91
2022/03/23 02:04:45;;;;;;;179.80;83.70;;;0.10;99.90;;;;;;5075892;28;20048;-90
2022/03/23 02:07:13;;;;;;;169.38;79.47;;;0.10;99.90;;;;;;5075393;28;20059;-91
2022/03/23 02:09:39;;;;;;;172.50;84.13;;;0.10;99.90;;;;;;5075677;28;20455;-91
2022/03/23 02:12:08;;;;;;;186.88;86.30;;;0.10;99.90;;;;;;5075666;28;20181;-90
2022/03/23 02:14:34;;;;;;;171.30;80.68;;;0.10;99.90;;;;;;5075453;28;20036;-91
2022/03/23 02:17:00;;;;;;;183.20;84.35;;;0.10;99.90;;;;;;5075180;28;20029;-90
2022/03/23 02:19:28;;;;;;;183.20;83.68;;;0.10;99.90;;;;;;5075026;28;20485;-90
2022/03/23 02:21:53;;;;;;;166.70;79.60;;;0.10;99.90;;;;;;5075142;28;20554;-90
2022/03/23 02:24:24;;;;;;;156.98;75.03;;;0.10;99.90;;;;;;5075921;28;20067;-90
2022/03/23 02:26:53;;;;;;;168.90;79.93;;;0.00;99.90;;;;;;5075447;28;20066;-90
2022/03/23 02:29:22;;;;;;;160.25;75.32;;;0.00;99.90;;;;;;5075179;28;20024;-90
2022/03/23 02:31:47;;;;;;;157.70;74.38;;;0.00;99.90;;;;;;5075377;28;20020;-90
2022/03/23 02:34:13;;;;;;;151.13;71.75;;;0.00;99.90;;;;;;5074844;28;20020;-90
2022/03/23 02:36:40;;;;;;;167.30;76.70;;;0.00;99.90;;;;;;5075029;28;20029;-90
2022/03/23 02:39:06;;;;;;;151.20;69.68;;;0.00;99.90;;;;;;5074424;28;20111;-90
2022/03/23 02:41:32;;;;;;;150.77;71.20;;;0.10;99.90;;;;;;5074344;28;20093;-90
2022/03/23 02:43:59;;;;;;;155.85;71.13;;;0.10;99.90;;;;;;5074647;28;20021;-90
2022/03/23 02:46:26;;;;;;;150.80;69.53;;;0.10;99.90;;;;;;5076389;28;20043;-90
2022/03/23 02:48:52;;;;;;;147.20;71.07;;;0.10;99.90;;;;;;5075619;28;20363;-90
2022/03/23 02:51:18;;;;;;;158.80;72.63;;;0.10;99.90;;;;;;5075611;28;20024;-90
2022/03/23 03:02:38;;;;;;;149.23;68.30;;;-0.10;99.90;;;;;;5075522;28;20106;-90
2022/03/23 03:05:05;;;;;;;151.77;68.03;;;-0.10;99.90;;;;;;5068139;28;20021;-91
2022/03/23 03:10:15;;;;;;;139.85;64.40;;;-0.20;99.90;;;;;;5075669;28;20035;-90
2022/03/23 03:12:42;;;;;;;137.40;64.40;;;-0.20;99.90;;;;;;5074220;28;20029;-90
2022/03/23 03:15:16;;;;;;;126.07;59.58;;;-0.20;99.90;;;;;;5074961;28;20058;-90
2022/03/23 03:17:42;;;;;;;140.00;65.45;;;-0.20;99.90;;;;;;5074337;28;20035;-90
2022/03/23 03:20:09;;;;;;;135.43;61.25;;;-0.20;99.90;;;;;;5074801;28;20099;-90
2022/03/23 03:22:38;;;;;;;130.35;60.35;;;-0.20;99.90;;;;;;5074143;28;20083;-90
2022/03/23 03:25:04;;;;;;;117.90;55.58;;;-0.20;99.90;;;;;;5074082;28;20021;-90
2022/03/23 03:27:34;;;;;;;120.20;53.53;;;-0.20;99.90;;;;;;5074358;28;20028;-90
2022/03/23 03:30:04;;;;;;;123.88;56.25;;;-0.20;99.90;;;;;;5074456;28;20507;-90
2022/03/23 03:32:30;;;;;;;118.78;56.40;;;-0.20;99.90;;;;;;5073916;28;20033;-90
2022/03/23 03:34:56;;;;;;;116.72;54.17;;;-0.20;99.90;;;;;;5073665;28;20029;-90
2022/03/23 03:37:21;;;;;;;108.95;53.10;;;-0.20;99.90;;;;;;5073518;28;20035;-90
2022/03/23 03:39:47;;;;;;;107.25;51.15;;;-0.20;99.90;;;;;;5073653;28;20098;-90
2022/03/23 03:42:13;;;;;;;98.22;48.75;;;-0.30;99.90;;;;;;5073692;28;20035;-90
2022/03/23 03:44:39;;;;;;;92.90;44.15;;;-0.30;99.90;;;;;;5073712;28;20017;-90
2022/03/23 03:47:05;;;;;;;94.72;45.92;;;-0.30;99.90;;;;;;5074578;28;20375;-90
2022/03/23 03:49:32;;;;;;;91.40;43.85;;;-0.30;99.90;;;;;;5073921;28;20371;-90
2022/03/23 03:51:58;;;;;;;86.55;42.25;;;-0.30;99.90;;;;;;5073866;28;20020;-90
2022/03/23 03:54:24;;;;;;;92.25;40.85;;;-0.40;99.90;;;;;;5073764;28;20031;-90
2022/03/23 03:56:50;;;;;;;77.75;37.65;;;-0.50;99.90;;;;;;5073274;28;20119;-90
2022/03/23 03:59:15;;;;;;;79.07;38.22;;;-0.50;99.90;;;;;;5073514;28;20051;-90
2022/03/23 04:01:42;;;;;;;64.57;32.58;;;-0.50;99.90;;;;;;5073149;28;20031;-91
2022/03/23 04:04:07;;;;;;;71.15;33.78;;;-0.50;99.90;;;;;;5073447;28;20036;-90
2022/03/23 04:06:33;;;;;;;71.32;33.88;;;-0.50;99.90;;;;;;5057385;28;20055;-90
2022/03/23 04:08:59;;;;;;;68.15;31.15;;;-0.50;99.90;;;;;;5073039;28;20063;-90
2022/03/23 04:11:26;;;;;;;61.13;30.67;;;-0.50;99.90;;;;;;5073355;28;20131;-90
2022/03/23 04:13:51;;;;;;;62.78;30.90;;;-0.50;99.90;;;;;;5073092;28;20024;-90
2022/03/23 04:16:17;;;;;;;67.00;32.03;;;-0.50;99.90;;;;;;5073401;28;20031;-90
2022/03/23 04:18:42;;;;;;;59.67;30.10;;;-0.40;99.90;;;;;;5073285;28;20115;-90
2022/03/23 04:21:08;;;;;;;61.28;29.65;;;-0.40;99.90;;;;;;5072981;28;20044;-90
2022/03/23 04:23:34;;;;;;;59.85;29.45;;;-0.30;99.90;;;;;;5073288;28;20090;-90
2022/03/23 04:26:01;;;;;;;62.40;30.17;;;-0.30;99.90;;;;;;5074029;28;20440;-90
2022/03/23 04:28:26;;;;;;;58.63;31.05;;;-0.30;99.90;;;;;;5073106;28;20032;-90
2022/03/23 04:30:52;;;;;;;57.20;30.33;;;-0.20;99.90;;;;;;5072909;28;20028;-90
2022/03/23 04:33:18;;;;;;;52.45;28.05;;;-0.20;99.90;;;;;;5073637;28;20029;-90
2022/03/23 04:35:45;;;;;;;61.03;28.95;;;-0.10;99.90;;;;;;5073494;28;20028;-90
2022/03/23 04:38:11;;;;;;;55.80;29.35;;;-0.10;99.90;;;;;;5073158;28;20052;-89
2022/03/23 04:40:37;;;;;;;69.70;31.92;;;0.00;99.90;;;;;;5072427;28;20056;-90
2022/03/23 04:43:07;;;;;;;66.18;31.05;;;0.00;99.90;;;;;;5072352;28;20111;-90
2022/03/23 04:45:32;;;;;;;58.88;31.40;;;0.10;99.90;;;;;;5072415;28;20028;-89
2022/03/23 04:47:58;;;;;;;66.15;31.90;;;0.10;99.90;;;;;;5073755;28;20456;-90
2022/03/23 04:50:23;;;;;;;69.60;32.97;;;0.20;99.90;;;;;;5072593;28;20032;-90
2022/03/23 04:52:52;;;;;;;75.13;32.53;;;0.30;99.90;;;;;;5072597;28;20031;-90
2022/03/23 04:55:18;;;;;;;66.25;29.40;;;0.30;99.90;;;;;;5072739;28;20434;-90
2022/03/23 04:57:45;;;;;;;62.83;29.70;;;0.40;99.90;;;;;;5073427;28;20383;-90
2022/03/23 05:00:15;;;;;;;61.25;28.02;;;0.50;99.90;;;;;;5071709;28;20055;-89
2022/03/23 05:02:42;;;;;;;63.47;27.63;;;0.60;99.90;;;;;;5072790;28;20066;-90
2022/03/23 05:05:11;;;;;;;59.72;26.83;;;0.80;99.90;;;;;;5072481;28;20051;-89
2022/03/23 05:07:38;;;;;;;60.70;27.40;;;0.90;99.90;;;;;;5072971;28;20103;-90
2022/03/23 05:10:04;;;;;;;59.13;27.08;;;1.00;99.90;;;;;;5072521;28;20023;-90
2022/03/23 05:12:30;;;;;;;57.75;25.83;;;1.10;99.90;;;;;;5073010;28;20078;-90
2022/03/23 05:14:58;;;;;;;59.63;26.73;;;1.20;99.90;;;;;;5072383;28;20024;-91
2022/03/23 05:17:23;;;;;;;53.83;25.10;;;1.30;99.90;;;;;;5072867;28;20027;-91
2022/03/23 05:19:49;;;;;;;47.17;23.75;;;1.30;99.90;;;;;;5072958;28;20119;-90
2022/03/23 05:22:15;;;;;;;45.00;22.02;;;1.40;99.90;;;;;;5072525;28;20044;-91
2022/03/23 05:24:41;;;;;;;46.20;22.10;;;1.60;99.90;;;;;;5072956;28;20025;-90
2022/03/23 05:27:08;;;;;;;48.00;22.10;;;1.60;99.90;;;;;;5073771;28;20425;-90
2022/03/23 05:29:35;;;;;;;49.83;22.02;;;1.80;99.90;;;;;;5071432;28;20021;-90
2022/03/23 05:32:00;;;;;;;45.63;20.13;;;1.90;99.90;;;;;;5075419;28;20115;-90
2022/03/23 05:34:26;;;;;;;43.05;20.35;;;2.00;99.90;;;;;;5075098;28;20116;-90
2022/03/23 05:36:52;;;;;;;40.65;19.98;;;2.10;99.90;;;;;;5075246;28;20033;-90
2022/03/23 05:39:18;;;;;;;39.42;17.95;;;2.30;99.90;;;;;;5075133;28;20078;-89
2022/03/23 05:41:44;;;;;;;38.40;17.58;;;2.40;99.90;;;;;;5076408;28;20024;-89
2022/03/23 05:44:09;;;;;;;35.28;17.27;;;2.50;99.90;;;;;;5074755;28;20544;-89
2022/03/23 05:46:36;;;;;;;40.33;17.70;;;2.60;99.90;;;;;;5074448;28;20029;-89
2022/03/23 05:49:03;;;;;;;30.42;15.93;;;2.70;99.90;;;;;;5075297;28;20023;-89
2022/03/23 05:51:29;;;;;;;34.47;15.07;;;2.90;99.60;;;;;;5075074;28;20031;-89
2022/03/23 05:53:54;;;;;;;32.05;14.73;;;3.00;99.60;;;;;;5073517;28;20020;-89
2022/03/23 05:56:20;;;;;;;30.15;15.13;;;3.10;98.70;;;;;;5074174;28;20070;-89
2022/03/23 05:58:46;;;;;;;36.45;15.25;;;3.30;99.00;;;;;;5074030;28;20109;-89
2022/03/23 06:01:12;;;;;;;42.60;17.48;;;3.40;98.80;;;;;;5057753;28;20106;-89
2022/03/23 06:03:37;;;;;;;36.10;16.50;;;3.50;98.50;;;;;;5073821;28;20024;-89
2022/03/23 06:06:04;;;;;;;31.95;15.38;;;3.50;98.50;;;;;;5074053;28;20031;-89
2022/03/23 06:08:31;;;;;;;37.47;14.98;;;3.70;97.30;;;;;;5074749;28;20039;-90
2022/03/23 06:10:57;;;;;;;27.80;14.10;;;3.80;97.50;;;;;;5058272;28;20079;-90
2022/03/23 06:13:24;;;;;;;38.38;15.20;;;3.90;96.70;;;;;;5074633;28;20024;-90
2022/03/23 06:15:50;;;;;;;26.35;13.88;;;4.00;94.90;;;;;;5074840;28;20031;-89
2022/03/23 06:18:16;;;;;;;36.15;14.35;;;4.20;95.70;;;;;;5074204;28;20036;-90
2022/03/23 06:20:42;;;;;;;31.67;13.75;;;4.30;95.60;;;;;;5073774;28;20132;-89
2022/03/23 06:23:08;;;;;;;27.40;12.57;;;4.40;95.50;;;;;;5074631;28;20111;-89
2022/03/23 06:25:33;;;;;;;30.80;12.73;;;4.50;95.00;;;;;;5074618;28;20020;-89
2022/03/23 06:27:59;;;;;;;27.65;12.30;;;4.60;94.50;;;;;;5058225;28;20027;-89
2022/03/23 06:30:25;;;;;;;22.95;11.32;;;4.70;94.40;;;;;;5074340;28;20127;-89
2022/03/23 06:32:50;;;;;;;21.35;11.43;;;4.90;93.80;;;;;;5073532;28;20025;-89
2022/03/23 06:35:18;;;;;;;22.48;11.60;;;5.00;93.20;;;;;;5073538;28;20032;-89
2022/03/23 06:37:45;;;;;;;21.77;10.52;;;5.10;93.70;;;;;;5074685;28;20028;-89
2022/03/23 06:40:11;;;;;;;22.52;11.52;;;5.20;93.70;;;;;;5074804;28;20050;-89
2022/03/23 06:42:37;;;;;;;23.45;11.60;;;5.30;93.30;;;;;;5073711;28;20052;-89
2022/03/23 06:45:04;;;;;;;21.20;11.30;;;5.40;92.90;;;;;;5074404;28;20054;-90
2022/03/23 06:47:30;;;;;;;23.35;11.50;;;5.40;92.90;;;;;;5073763;28;20024;-89
2022/03/23 06:49:56;;;;;;;23.95;11.50;;;5.50;92.50;;;;;;5074131;28;20017;-90
2022/03/23 06:52:22;;;;;;;25.65;13.05;;;5.60;92.40;;;;;;5074513;28;20383;-89
2022/03/23 06:54:48;;;;;;;21.63;12.00;;;5.60;92.20;;;;;;5074237;28;20077;-90
2022/03/23 06:57:14;;;;;;;26.77;12.88;;;5.70;92.20;;;;;;5073846;28;20025;-89
2022/03/23 06:59:39;;;;;;;31.95;13.52;;;5.80;91.90;;;;;;5074070;28;20035;-90
2022/03/23 07:02:06;;;;;;;24.65;13.60;;;5.80;91.80;;;;;;5073419;28;20376;-90
2022/03/23 07:04:31;;;;;;;26.15;12.10;;;5.90;91.60;;;;;;5073187;28;20023;-89
2022/03/23 07:06:57;;;;;;;23.15;11.77;;;5.90;91.70;;;;;;5074121;28;20025;-89
2022/03/23 07:09:31;;;;;;;28.08;12.70;;;6.00;91.40;;;;;;5057407;28;20028;-89
2022/03/23 07:11:58;;;;;;;26.52;12.77;;;6.10;91.60;;;;;;5074016;28;20024;-90
2022/03/23 07:14:25;;;;;;;21.92;11.82;;;6.20;91.20;;;;;;5073942;28;20029;-90
2022/03/23 07:16:51;;;;;;;31.52;12.27;;;6.30;91.00;;;;;;5073959;28;20536;-90
2022/03/23 07:19:17;;;;;;;28.55;11.35;;;6.30;90.50;;;;;;5072815;28;20028;-90
2022/03/23 07:21:43;;;;;;;25.83;13.30;;;6.40;90.80;;;;;;5056768;28;20053;-90
2022/03/23 07:24:08;;;;;;;23.10;12.70;;;6.50;90.60;;;;;;5073383;28;20063;-89
2022/03/23 07:26:34;;;;;;;32.80;14.35;;;6.60;90.60;;;;;;5056792;28;20043;-90
2022/03/23 07:29:01;;;;;;;29.50;13.63;;;6.60;89.70;;;;;;5073297;28;20104;-90
2022/03/23 07:31:27;;;;;;;27.45;13.60;;;6.70;90.30;;;;;;5073675;28;20390;-90
2022/03/23 07:33:52;;;;;;;26.65;12.90;;;6.80;90.20;;;;;;5072377;28;20025;-90
2022/03/23 07:36:18;;;;;;;34.95;14.75;;;6.90;90.00;;;;;;5072752;28;20025;-90
2022/03/23 07:38:44;;;;;;;28.55;14.15;;;7.00;90.00;;;;;;5073484;28;20028;-89
2022/03/23 07:41:09;;;;;;;30.80;15.95;;;7.10;90.10;;;;;;5073185;28;20033;-90
2022/03/23 07:43:35;;;;;;;28.65;14.63;;;7.20;90.10;;;;;;5073442;28;20540;-90
2022/03/23 07:46:01;;;;;;;29.42;14.30;;;7.30;89.80;;;;;;5073059;28;20379;-90
2022/03/23 07:48:26;;;;;;;29.70;11.40;;;7.30;89.50;;;;;;5072047;28;20453;-90
2022/03/23 07:50:52;;;;;;;25.67;11.63;;;7.50;88.00;;;;;;5072532;28;20020;-90
2022/03/23 07:53:20;;;;;;;27.92;12.65;;;7.60;86.60;;;;;;5056617;28;20107;-90
2022/03/23 07:55:47;;;;;;;24.80;12.27;;;7.70;87.70;;;;;;5073067;28;20039;-90
2022/03/23 07:58:13;;;;;;;33.63;12.95;;;7.80;86.80;;;;;;5073075;28;20028;-90
2022/03/23 08:00:41;;;;;;;27.40;11.55;;;7.90;87.30;;;;;;5073904;28;20028;-90
2022/03/23 08:03:07;;;;;;;24.50;10.82;;;8.00;87.10;;;;;;5055837;28;20498;-90
2022/03/23 08:05:33;;;;;;;21.20;10.93;;;8.10;86.80;;;;;;5072642;28;20029;-90
2022/03/23 08:07:59;;;;;;;24.67;11.52;;;8.20;86.10;;;;;;5073274;28;20030;-90
2022/03/23 08:10:25;;;;;;;22.17;10.98;;;8.30;86.20;;;;;;5073104;28;20021;-90
2022/03/23 08:12:53;;;;;;;20.50;10.80;;;8.40;85.20;;;;;;5056306;28;20135;-90
2022/03/23 08:15:19;;;;;;;29.35;13.40;;;8.50;85.00;;;;;;5072821;28;20031;-90
2022/03/23 08:17:45;;;;;;;18.13;10.27;;;8.70;84.20;;;;;;5071747;28;20033;-91
2022/03/23 08:22:59;;;;;;;21.95;9.30;;;8.70;82.50;;;;;;5074133;28;20037;-90
2022/03/23 08:25:25;;;;;;;14.67;8.20;;;8.80;82.80;;;;;;5072715;28;20024;-90
2022/03/23 08:27:51;;;;;;;15.98;7.95;;;8.80;82.40;;;;;;5072522;28;20020;-91
2022/03/23 08:30:17;;;;;;;17.08;7.15;;;8.80;81.40;;;;;;5072728;28;20016;-90
2022/03/23 08:32:43;;;;;;;21.52;9.50;;;8.90;82.10;;;;;;5072114;28;20029;-91
2022/03/23 08:35:09;;;;;;;16.80;10.50;;;8.90;80.30;;;;;;5072170;28;20020;-90
2022/03/23 08:37:34;;;;;;;15.68;8.05;;;9.00;80.40;;;;;;5072622;28;20029;-91
2022/03/23 08:40:00;;;;;;;14.05;5.95;;;9.00;80.00;;;;;;5072247;28;20029;-91
2022/03/23 08:42:26;;;;;;;13.68;6.60;;;9.10;79.50;;;;;;5072584;28;20441;-90
2022/03/23 08:44:52;;;;;;;17.55;7.32;;;9.10;79.40;;;;;;5072418;28;20061;-91
2022/03/23 08:47:17;;;;;;;16.08;6.15;;;9.20;78.20;;;;;;5071361;28;20070;-91
2022/03/23 08:49:44;;;;;;;16.73;5.60;;;9.30;77.30;;;;;;5071930;28;20525;-91
2022/03/23 08:52:10;;;;;;;13.73;6.57;;;9.40;76.70;;;;;;5072637;28;20024;-92
2022/03/23 08:54:35;;;;;;;18.38;6.43;;;9.60;75.30;;;;;;5072079;28;20058;-90
2022/03/23 08:57:02;;;;;;;15.43;6.30;;;9.70;74.90;;;;;;5055877;28;20035;-90
2022/03/23 08:59:27;;;;;;;14.65;5.78;;;9.70;75.30;;;;;;5072913;28;20028;-91
2022/03/23 09:01:54;;;;;;;9.82;4.78;;;9.70;74.20;;;;;;5071485;28;20028;-92
2022/03/23 09:04:20;;;;;;;15.82;6.13;;;9.80;74.60;;;;;;5057297;28;20024;-91
2022/03/23 09:06:47;;;;;;;12.15;5.28;;;9.90;73.20;;;;;;5076591;28;20482;-92
2022/03/23 09:09:12;;;;;;;8.73;5.10;;;10.00;72.10;;;;;;5075957;28;20020;-91
2022/03/23 09:11:38;;;;;;;14.30;5.03;;;10.00;73.20;;;;;;5075731;28;20535;-91
2022/03/23 09:14:04;;;;;;;10.18;5.05;;;10.20;71.70;;;;;;5076230;28;20064;-92
2022/03/23 09:16:30;;;;;;;15.18;5.03;;;10.50;72.20;;;;;;5075980;28;20493;-91
2022/03/23 09:18:55;;;;;;;9.98;4.72;;;10.50;72.10;;;;;;5075093;28;20036;-91
2022/03/23 09:21:23;;;;;;;13.07;4.95;;;10.50;71.40;;;;;;5075391;28;20052;-91
2022/03/23 09:23:49;;;;;;;11.25;3.92;;;10.50;70.50;;;;;;5075941;28;20063;-92
2022/03/23 09:26:15;;;;;;;12.43;4.75;;;10.60;70.70;;;;;;5076406;28;20052;-92
2022/03/23 09:28:41;;;;;;;11.30;4.95;;;10.60;69.60;;;;;;5076005;28;20053;-91
2022/03/23 09:31:07;;;;;;;15.43;4.85;;;10.60;69.80;;;;;;5076129;28;20025;-91
2022/03/23 09:33:33;;;;;;;9.40;5.00;;;10.60;69.70;;;;;;5075219;28;20033;-91
2022/03/23 09:35:59;;;;;;;9.35;4.93;;;10.60;69.50;;;;;;5074978;28;20032;-91
2022/03/23 09:38:26;;;;;;;9.85;5.03;;;10.80;68.80;;;;;;5075769;28;20194;-91
2022/03/23 09:40:52;;;;;;;11.73;5.50;;;10.80;68.60;;;;;;5075830;28;20031;-91
2022/03/23 09:43:22;;;;;;;10.27;4.57;;;10.80;68.30;;;;;;5075417;28;20033;-92
2022/03/23 09:45:48;;;;;;;;;;;10.90;68.80;;;;;;5076232;28;20078;-91
2022/03/23 09:48:26;;;;;;;11.25;5.07;;;10.90;66.70;;;;;;5074837;28;19904;-92
2022/03/23 09:50:53;;;;;;;10.15;4.70;;;10.90;68.20;;;;;;5074509;28;20035;-91
2022/03/23 09:53:22;;;;;;;11.45;5.28;;;11.00;68.00;;;;;;5075416;28;20020;-91
2022/03/23 09:55:52;;;;;;;10.65;5.32;;;11.00;68.00;;;;;;5075545;28;20021;-92
2022/03/23 09:58:18;;;;;;;8.57;4.80;;;11.00;68.10;;;;;;5075929;28;20016;-92
2022/03/23 10:00:46;;;;;;;11.68;4.70;;;11.10;68.10;;;;;;5075533;28;20028;-92
2022/03/23 10:03:16;;;;;;;12.93;5.63;;;11.10;67.70;;;;;;5074765;28;20024;-92
2022/03/23 10:06:03;;;;;;;13.18;5.78;;;11.10;67.20;;;;;;5074851;28;20020;-92
2022/03/23 10:08:53;;;;;;;14.35;5.68;;;11.30;65.70;;;;;;5075416;28;20467;-92
2022/03/23 10:11:38;;;;;;;;;;;11.40;65.00;;;;;;5075820;28;20502;-92
2022/03/23 10:14:54;;;;;;;13.68;5.88;;;11.40;64.50;;;;;;5075256;28;19904;-92
2022/03/23 10:17:42;;;;;;;12.40;5.25;;;11.50;64.60;;;;;;5033328;28;20032;-92
2022/03/23 10:20:11;;;;;;;12.02;5.65;;;11.50;65.80;;;;;;5074613;28;20057;-92
2022/03/23 10:22:45;;;;;;;11.88;5.28;;;11.40;65.20;;;;;;5073949;28;20028;-92
2022/03/23 10:25:13;;;;;;;12.35;5.68;;;11.50;64.60;;;;;;5058216;28;20028;-92
2022/03/23 10:27:38;;;;;;;12.85;5.72;;;11.50;65.10;;;;;;5074454;28;20032;-93
2022/03/23 10:30:05;;;;;;;15.93;5.82;;;11.50;65.00;;;;;;5074789;28;20021;-92
2022/03/23 10:32:39;;;;;;;14.68;5.63;;;11.50;65.00;;;;;;5074941;28;20483;-92
2022/03/23 10:35:09;;;;;;;11.35;5.70;;;11.50;64.40;;;;;;5073954;28;20056;-93
2022/03/23 10:37:35;;;;;;;10.40;5.93;;;11.60;64.80;;;;;;5075567;28;20028;-92
2022/03/23 10:40:13;;;;;;;13.10;5.60;;;11.70;64.10;;;;;;5075116;28;20048;-93
2022/03/23 10:42:45;;;;;;;16.48;6.57;;;11.70;63.70;;;;;;5071615;28;20041;-93
2022/03/23 10:45:17;;;;;;;13.13;5.63;;;11.70;63.90;;;;;;5074511;28;20017;-92
2022/03/23 10:47:44;;;;;;;13.95;5.80;;;11.80;64.10;;;;;;5074579;28;20386;-92
2022/03/23 10:50:19;;;;;;;13.43;5.90;;;11.90;64.30;;;;;;5074356;28;20078;-92
2022/03/23 10:53:01;;;;;;;16.83;5.97;;;12.00;64.20;;;;;;5067835;28;20047;-93
2022/03/23 10:55:35;;;;;;;12.20;6.95;;;12.10;62.60;;;;;;5074224;28;20024;-93
2022/03/23 10:58:00;;;;;;;14.23;6.57;;;12.20;63.00;;;;;;5074332;28;20023;-93
2022/03/23 11:00:39;;;;;;;11.18;6.00;;;12.10;62.40;;;;;;5074400;28;20115;-93
2022/03/23 11:03:06;;;;;;;10.25;5.60;;;12.20;62.90;;;;;;5074352;28;20500;-92
2022/03/23 11:05:43;;;;;;;11.90;5.55;;;12.20;62.50;;;;;;5073638;28;20055;-92
2022/03/23 11:08:28;;;;;;;12.85;5.57;;;12.20;62.70;;;;;;5070915;28;20059;-92
2022/03/23 11:16:49;;;;;;;10.13;6.00;;;12.20;62.30;;;;;;5075425;28;20051;-92
2022/03/23 11:19:21;;;;;;;16.55;6.00;;;12.20;61.80;;;;;;5073988;28;21056;-92
2022/03/23 11:22:03;;;;;;;13.13;5.57;;;12.30;62.30;;;;;;5072808;28;20510;-93
2022/03/23 11:24:33;;;;;;;13.93;5.95;;;12.40;62.60;;;;;;5073925;28;20073;-92
2022/03/23 11:27:00;;;;;;;14.88;5.63;;;12.40;62.70;;;;;;5073107;28;20032;-92
2022/03/23 11:29:27;;;;;;;14.10;5.88;;;12.50;62.10;;;;;;5074096;28;20513;-92
2022/03/23 11:31:53;;;;;;;14.75;5.90;;;12.60;61.70;;;;;;5075032;28;20107;-92
2022/03/23 11:34:22;;;;;;;11.25;5.55;;;12.70;62.20;;;;;;5073988;28;20020;-92
2022/03/23 11:36:51;;;;;;;20.63;9.03;;;12.70;62.20;;;;;;5073434;28;20418;-92
2022/03/23 11:39:21;;;;;;;18.15;8.65;;;12.70;62.80;;;;;;5072363;28;20020;-92
2022/03/23 11:41:48;;;;;;;19.98;9.48;;;12.70;63.30;;;;;;5073484;28;20041;-91
2022/03/23 11:44:18;;;;;;;17.75;8.30;;;12.70;63.30;;;;;;5073129;28;20041;-92
2022/03/23 11:46:45;;;;;;;14.00;5.93;;;12.60;63.10;;;;;;5073345;28;20024;-92
2022/03/23 11:49:32;;;;;;;19.48;9.30;;;12.60;62.50;;;;;;5056698;28;20067;-92
2022/03/23 11:52:31;;;;;;;22.15;10.00;;;12.60;62.00;;;;;;5072442;28;20031;-92
2022/03/23 11:55:39;;;;;;;28.33;10.05;;;12.60;61.00;;;;;;5072616;28;20016;-92
2022/03/23 11:58:31;;;;;;;18.65;9.38;;;12.60;61.90;;;;;;5073317;28;20414;-92
2022/03/23 12:01:11;;;;;;;20.00;9.38;;;12.60;62.20;;;;;;5074068;28;20521;-91
2022/03/23 12:03:40;;;;;;;;;;;12.60;62.60;;;;;;5073628;28;20024;-91
2022/03/23 12:06:16;;;;;;;21.88;9.45;;;12.70;62.70;;;;;;5072968;28;19908;-91
2022/03/23 12:08:58;;;;;;;19.67;10.55;;;12.70;63.20;;;;;;5072094;28;20016;-91
2022/03/23 12:11:43;;;;;;;18.90;8.98;;;12.80;63.10;;;;;;5073051;28;20024;-91
2022/03/23 12:14:27;;;;;;;20.95;8.80;;;12.80;62.40;;;;;;5073184;28;20074;-91
2022/03/23 12:16:53;;;;;;;17.50;8.15;;;12.80;63.00;;;;;;5072687;28;20107;-91
2022/03/23 12:19:26;;;;;;;16.50;7.88;;;12.80;63.30;;;;;;5073249;28;20116;-92
2022/03/23 12:22:06;;;;;;;17.75;7.45;;;12.80;63.10;;;;;;5072176;28;20397;-92
2022/03/23 12:24:34;;;;;;;;;;;12.90;62.90;;;;;;5072603;28;20028;-92
2022/03/23 12:27:07;;;;;;;17.48;7.57;;;12.90;61.70;;;;;;5073105;28;19911;-91
2022/03/23 12:29:37;;;;;;;15.82;7.63;;;12.90;62.50;;;;;;5073254;28;20063;-91
2022/03/23 12:32:06;;;;;;;17.30;8.32;;;13.10;62.40;;;;;;5072636;28;20078;-91
2022/03/23 12:34:34;;;;;;;13.63;7.28;;;13.30;62.50;;;;;;5072477;28;20029;-92
2022/03/23 12:37:10;;;;;;;25.50;8.00;;;13.60;62.70;;;;;;5071481;28;20082;-91
2022/03/23 12:39:39;;;;;;;20.42;8.32;;;14.10;62.00;;;;;;5077218;28;20031;-92
2022/03/23 12:42:11;;;;;;;18.42;8.55;;;14.60;62.10;;;;;;5077114;28;20036;-92
2022/03/23 12:44:37;;;;;;;17.60;9.07;;;15.10;60.70;;;;;;5077291;28;20029;-92
2022/03/23 12:47:06;;;;;;;17.65;8.38;;;15.50;60.60;;;;;;5075993;28;20035;-92
2022/03/23 12:58:19;;;;;;;13.32;7.10;;;17.10;56.60;;;;;;5078097;28;20159;-91
2022/03/23 13:00:49;;;;;;;14.15;7.10;;;17.50;56.60;;;;;;5076792;28;20018;-92
2022/03/23 13:03:22;;;;;;;16.67;6.55;;;17.70;55.20;;;;;;5077115;28;20033;-92
2022/03/23 13:05:59;;;;;;;23.17;6.82;;;18.00;55.70;;;;;;5076868;28;20035;-93